Time;durP1;ratioP1;P1;durP2;ratioP2;P2;SDS_P1;SDS_P2;PMS_P1;PMS_P2;Temp;Humidity;BMP_temperature;BMP_pressure;BME280_temperature;BME280_humidity;BME280_pressure;Samples;Min_cycle;Max_cycle;Signal;HPM_P1;HPM_P2
2023/04/24 00:00:12;;;;;;;0.50;0.50;;;12.70;99.90;;;;;;5071450;28;20606;-64
2023/04/24 00:02:40;;;;;;;0.57;0.57;;;12.70;99.90;;;;;;5071353;28;20927;-64
2023/04/24 00:05:08;;;;;;;0.50;0.50;;;12.70;99.90;;;;;;5072294;28;20211;-65
2023/04/24 00:07:35;;;;;;;0.50;0.50;;;12.70;99.90;;;;;;5072184;28;20207;-65
2023/04/24 00:10:02;;;;;;;0.40;0.40;;;12.80;99.90;;;;;;5071447;28;20642;-65
2023/04/24 00:12:29;;;;;;;0.40;0.40;;;12.80;99.90;;;;;;5072375;28;20210;-66
2023/04/24 00:14:57;;;;;;;0.30;0.30;;;12.80;99.90;;;;;;5072845;28;20203;-65
2023/04/24 00:17:23;;;;;;;0.50;0.50;;;12.90;99.90;;;;;;5073098;28;20210;-64
2023/04/24 00:19:58;;;;;;;1.15;0.70;;;12.80;99.90;;;;;;5072223;28;20225;-65
2023/04/24 00:22:25;;;;;;;0.40;0.40;;;12.80;99.90;;;;;;5072325;28;20247;-63
2023/04/24 00:24:52;;;;;;;1.37;0.60;;;12.80;99.90;;;;;;5072583;28;20211;-64
2023/04/24 00:27:19;;;;;;;0.22;0.22;;;12.80;99.90;;;;;;5074164;28;20690;-64
2023/04/24 00:29:45;;;;;;;0.55;0.55;;;12.80;99.90;;;;;;5072733;28;20611;-65
2023/04/24 00:32:12;;;;;;;0.35;0.35;;;12.80;99.90;;;;;;5070808;28;20773;-65
2023/04/24 00:34:39;;;;;;;0.60;0.60;;;12.80;99.90;;;;;;5076526;28;20207;-65
2023/04/24 00:37:07;;;;;;;0.70;0.70;;;12.90;99.90;;;;;;5083350;28;20294;-69
2023/04/24 00:39:35;;;;;;;0.40;0.40;;;12.80;99.90;;;;;;5073201;28;20219;-65
2023/04/24 00:42:02;;;;;;;0.40;0.40;;;12.80;99.90;;;;;;5071415;28;20241;-64
2023/04/24 00:44:29;;;;;;;0.50;0.50;;;12.80;99.90;;;;;;5070840;28;20204;-63
2023/04/24 00:46:56;;;;;;;0.40;0.40;;;12.70;99.90;;;;;;5070662;28;20215;-65
2023/04/24 00:49:23;;;;;;;0.63;0.63;;;12.80;99.90;;;;;;5070291;28;20203;-65
2023/04/24 00:51:51;;;;;;;0.40;0.40;;;12.80;99.90;;;;;;5070391;28;20233;-66
2023/04/24 00:54:19;;;;;;;0.50;0.50;;;12.70;99.90;;;;;;5070309;28;20693;-66
2023/04/24 00:56:46;;;;;;;0.70;0.70;;;12.60;99.90;;;;;;5070761;28;20316;-64
2023/04/24 00:59:14;;;;;;;0.60;0.60;;;12.60;99.90;;;;;;5073751;28;20564;-64
2023/04/24 01:01:41;;;;;;;0.43;0.43;;;12.60;99.90;;;;;;5074292;28;20227;-64
2023/04/24 01:04:09;;;;;;;0.80;0.80;;;12.60;99.90;;;;;;5074439;28;20755;-65
2023/04/24 01:06:39;;;;;;;0.30;0.30;;;12.60;99.90;;;;;;5070177;28;20211;-64
2023/04/24 01:09:06;;;;;;;0.60;0.60;;;12.50;99.90;;;;;;5073805;28;20211;-65
2023/04/24 01:11:35;;;;;;;0.50;0.50;;;12.60;99.90;;;;;;5074638;28;20741;-63
2023/04/24 01:14:02;;;;;;;0.50;0.50;;;12.60;99.90;;;;;;5074545;28;20208;-64
2023/04/24 01:16:29;;;;;;;0.70;0.70;;;12.60;99.90;;;;;;5081192;28;20662;-64
2023/04/24 01:18:56;;;;;;;0.40;0.40;;;12.60;99.90;;;;;;5079797;28;20205;-65
2023/04/24 01:21:27;;;;;;;0.63;0.63;;;12.60;99.90;;;;;;5078002;28;20325;-65
2023/04/24 01:23:56;;;;;;;0.53;0.53;;;12.60;99.90;;;;;;5080652;28;20211;-65
2023/04/24 01:26:25;;;;;;;0.50;0.50;;;12.50;99.90;;;;;;5082660;28;20203;-64
2023/04/24 01:28:52;;;;;;;0.57;0.57;;;12.60;99.90;;;;;;5075401;28;20223;-65
2023/04/24 01:31:20;;;;;;;0.57;0.57;;;12.50;99.90;;;;;;5089482;28;20219;-66
2023/04/24 01:33:47;;;;;;;0.60;0.60;;;12.60;99.90;;;;;;5093428;28;20214;-66
2023/04/24 01:36:14;;;;;;;0.70;0.70;;;12.70;99.90;;;;;;5096216;28;20718;-66
2023/04/24 01:38:41;;;;;;;0.57;0.57;;;12.70;99.90;;;;;;5094314;28;20203;-66
2023/04/24 01:41:10;;;;;;;0.50;0.50;;;12.70;99.90;;;;;;5088524;28;20704;-64
2023/04/24 01:43:37;;;;;;;0.50;0.50;;;12.80;99.90;;;;;;5074911;28;20230;-65
2023/04/24 01:46:04;;;;;;;0.47;0.47;;;12.80;99.90;;;;;;5073995;28;20233;-65
2023/04/24 01:48:31;;;;;;;0.40;0.40;;;12.80;99.90;;;;;;5073997;28;20203;-64
2023/04/24 01:50:58;;;;;;;0.45;0.45;;;12.80;99.90;;;;;;5073247;28;20231;-64
2023/04/24 01:53:25;;;;;;;0.70;0.70;;;12.90;99.90;;;;;;5073690;28;20207;-64
2023/04/24 01:55:51;;;;;;;0.80;0.80;;;12.80;99.90;;;;;;5073767;28;20203;-65
2023/04/24 01:58:20;;;;;;;0.60;0.60;;;12.80;99.90;;;;;;5074173;28;20207;-65
2023/04/24 02:00:46;;;;;;;0.70;0.70;;;12.80;99.90;;;;;;5078157;28;20227;-64
2023/04/24 02:03:13;;;;;;;0.40;0.40;;;12.80;99.90;;;;;;5073789;28;20211;-63
2023/04/24 02:05:40;;;;;;;0.57;0.57;;;12.70;99.90;;;;;;5072994;28;20213;-64
2023/04/24 02:08:07;;;;;;;0.50;0.50;;;12.70;99.90;;;;;;5074044;28;20203;-65
2023/04/24 02:10:33;;;;;;;0.57;0.57;;;12.70;99.90;;;;;;5071913;28;20223;-64
2023/04/24 02:13:00;;;;;;;0.45;0.45;;;12.70;99.90;;;;;;5072787;28;20711;-64
2023/04/24 02:15:29;;;;;;;0.77;0.60;;;12.70;99.90;;;;;;5072577;28;20276;-63
2023/04/24 02:17:56;;;;;;;0.45;0.45;;;12.60;99.90;;;;;;5071765;28;20241;-70
2023/04/24 02:20:23;;;;;;;0.57;0.57;;;12.50;99.90;;;;;;5070616;28;20234;-63
2023/04/24 02:22:50;;;;;;;0.52;0.52;;;12.40;99.90;;;;;;5071796;28;20211;-64
2023/04/24 02:25:16;;;;;;;0.50;0.50;;;12.50;99.90;;;;;;5071816;28;20215;-65
2023/04/24 02:27:43;;;;;;;0.50;0.50;;;12.40;99.90;;;;;;5071397;28;20214;-66
2023/04/24 02:30:11;;;;;;;0.50;0.50;;;12.40;99.90;;;;;;5070513;28;20215;-65
2023/04/24 02:32:39;;;;;;;0.60;0.60;;;12.30;99.90;;;;;;5071343;28;20298;-65
2023/04/24 02:35:07;;;;;;;0.60;0.60;;;12.30;99.90;;;;;;5071705;28;20280;-64
2023/04/24 02:37:34;;;;;;;0.50;0.50;;;12.20;99.90;;;;;;5071427;28;20213;-66
2023/04/24 02:40:01;;;;;;;0.50;0.50;;;12.30;99.90;;;;;;5070575;28;20258;-65
2023/04/24 02:42:28;;;;;;;0.57;0.57;;;12.20;99.90;;;;;;5071220;28;20674;-65
2023/04/24 02:44:54;;;;;;;0.43;0.43;;;12.20;99.90;;;;;;5072015;28;20210;-65
2023/04/24 02:47:21;;;;;;;0.55;0.55;;;12.30;99.90;;;;;;5072462;28;20213;-64
2023/04/24 02:49:49;;;;;;;0.67;0.67;;;12.30;99.90;;;;;;5071869;28;20584;-64
2023/04/24 02:52:16;;;;;;;0.40;0.40;;;12.40;99.90;;;;;;5072329;28;20203;-63
2023/04/24 02:54:43;;;;;;;0.50;0.50;;;12.40;99.90;;;;;;5072484;28;20210;-64
2023/04/24 02:57:10;;;;;;;0.52;0.52;;;12.40;99.90;;;;;;5072071;28;20574;-65
2023/04/24 02:59:37;;;;;;;0.30;0.30;;;12.40;99.90;;;;;;5070920;28;20710;-64
2023/04/24 03:02:03;;;;;;;0.40;0.40;;;12.40;99.90;;;;;;5071655;28;20229;-63
2023/04/24 03:04:30;;;;;;;0.55;0.55;;;12.40;99.90;;;;;;5072120;28;20215;-65
2023/04/24 03:06:59;;;;;;;0.40;0.40;;;12.40;99.90;;;;;;5071606;28;20706;-64
2023/04/24 03:09:26;;;;;;;1.08;0.50;;;12.50;99.90;;;;;;5071071;28;20203;-64
2023/04/24 03:11:53;;;;;;;0.40;0.40;;;12.50;99.90;;;;;;5071699;28;20693;-65
2023/04/24 03:14:19;;;;;;;0.65;0.50;;;12.40;99.90;;;;;;5074367;28;20222;-65
2023/04/24 03:16:46;;;;;;;0.40;0.40;;;12.50;99.90;;;;;;5078042;28;20302;-63
2023/04/24 03:19:13;;;;;;;0.47;0.47;;;12.50;99.90;;;;;;5077220;28;20579;-63
2023/04/24 03:21:40;;;;;;;0.50;0.50;;;12.60;99.90;;;;;;5076794;28;20237;-64
2023/04/24 03:24:09;;;;;;;0.35;0.35;;;12.50;99.90;;;;;;5073951;28;20728;-63
2023/04/24 03:26:36;;;;;;;0.60;0.60;;;12.60;99.90;;;;;;5073760;28;20214;-64
2023/04/24 03:29:02;;;;;;;0.50;0.50;;;12.50;99.90;;;;;;5076888;28;20249;-64
2023/04/24 03:31:29;;;;;;;0.50;0.50;;;12.50;99.90;;;;;;5077249;28;20230;-65
2023/04/24 03:33:56;;;;;;;0.60;0.60;;;12.60;99.90;;;;;;5076483;28;20207;-64
2023/04/24 03:36:23;;;;;;;0.50;0.50;;;12.50;99.90;;;;;;5073901;28;20203;-64
2023/04/24 03:38:50;;;;;;;0.40;0.40;;;12.40;99.90;;;;;;5086456;28;20270;-65
2023/04/24 03:41:18;;;;;;;0.37;0.37;;;12.40;99.90;;;;;;5076607;28;20227;-64
2023/04/24 03:43:45;;;;;;;0.63;0.63;;;12.40;99.90;;;;;;5071667;28;20284;-65
2023/04/24 03:46:13;;;;;;;0.50;0.50;;;12.40;99.90;;;;;;5071717;28;20590;-65
2023/04/24 03:48:39;;;;;;;0.25;0.25;;;12.40;99.90;;;;;;5072471;28;20213;-65
2023/04/24 03:51:06;;;;;;;0.63;0.63;;;12.40;99.90;;;;;;5070579;28;20662;-65
2023/04/24 03:53:33;;;;;;;0.50;0.50;;;12.40;99.90;;;;;;5071691;28;20221;-65
2023/04/24 03:56:00;;;;;;;0.60;0.60;;;12.40;99.90;;;;;;5071231;28;20203;-66
2023/04/24 03:58:28;;;;;;;0.50;0.50;;;12.30;99.90;;;;;;5071752;28;20211;-64
2023/04/24 04:00:56;;;;;;;0.33;0.33;;;12.40;99.90;;;;;;5070195;28;20237;-64
2023/04/24 04:03:23;;;;;;;0.75;0.75;;;12.40;99.90;;;;;;5071028;28;20214;-63
2023/04/24 04:05:50;;;;;;;0.40;0.40;;;12.40;99.90;;;;;;5072002;28;20666;-65
2023/04/24 04:08:17;;;;;;;0.50;0.50;;;12.40;99.90;;;;;;5072874;28;20243;-64
2023/04/24 04:10:44;;;;;;;0.60;0.60;;;12.40;99.90;;;;;;5071139;28;20231;-65
2023/04/24 04:13:10;;;;;;;0.50;0.50;;;12.40;99.90;;;;;;5072742;28;20203;-64
2023/04/24 04:15:39;;;;;;;0.50;0.50;;;12.40;99.90;;;;;;5071725;28;20203;-63
2023/04/24 04:18:05;;;;;;;0.40;0.40;;;12.40;99.90;;;;;;5071316;28;20207;-64
2023/04/24 04:20:32;;;;;;;0.50;0.50;;;12.40;99.90;;;;;;5070412;28;20233;-64
2023/04/24 04:22:59;;;;;;;0.47;0.47;;;12.50;99.90;;;;;;5071869;28;20294;-64
2023/04/24 04:25:26;;;;;;;0.63;0.60;;;12.50;99.90;;;;;;5073199;28;20214;-65
2023/04/24 04:27:53;;;;;;;0.43;0.43;;;12.50;99.90;;;;;;5071074;28;20203;-63
2023/04/24 04:30:20;;;;;;;0.60;0.60;;;12.40;99.90;;;;;;5070296;28;20234;-65
2023/04/24 04:32:48;;;;;;;0.50;0.50;;;12.40;99.90;;;;;;5076087;28;20257;-65
2023/04/24 04:35:15;;;;;;;0.50;0.50;;;12.30;99.90;;;;;;5075102;28;20207;-65
2023/04/24 04:37:42;;;;;;;0.60;0.60;;;12.30;99.90;;;;;;5075436;28;20298;-64
2023/04/24 04:40:11;;;;;;;0.60;0.60;;;12.20;99.90;;;;;;5074673;28;20219;-64
2023/04/24 04:42:40;;;;;;;0.57;0.57;;;12.30;99.90;;;;;;5066877;28;20716;-64
2023/04/24 04:45:08;;;;;;;0.57;0.57;;;12.30;99.90;;;;;;5079529;28;20289;-63
2023/04/24 04:47:35;;;;;;;0.60;0.60;;;12.30;99.90;;;;;;5060106;28;20303;-64
2023/04/24 04:50:05;;;;;;;0.60;0.60;;;12.30;99.90;;;;;;5052880;28;20208;-62
2023/04/24 04:52:32;;;;;;;0.60;0.60;;;12.30;99.90;;;;;;5053713;28;20722;-64
2023/04/24 04:54:59;;;;;;;0.63;0.63;;;12.30;99.90;;;;;;5053477;28;20204;-66
2023/04/24 04:57:26;;;;;;;0.50;0.50;;;12.40;99.90;;;;;;5053971;28;20244;-63
2023/04/24 04:59:53;;;;;;;0.47;0.47;;;12.30;99.90;;;;;;5092491;28;20216;-65
2023/04/24 05:02:20;;;;;;;0.68;0.68;;;12.40;99.90;;;;;;5056196;28;20699;-64
2023/04/24 05:04:47;;;;;;;0.45;0.45;;;12.30;99.90;;;;;;5053419;28;20692;-64
2023/04/24 05:07:15;;;;;;;0.63;0.63;;;12.40;99.90;;;;;;5053452;28;20226;-63
2023/04/24 05:09:42;;;;;;;0.60;0.60;;;12.40;99.90;;;;;;5052361;28;20674;-65
2023/04/24 05:12:08;;;;;;;0.52;0.52;;;12.40;99.90;;;;;;5052608;28;20234;-65
2023/04/24 05:14:35;;;;;;;0.40;0.40;;;12.40;99.90;;;;;;5054142;28;20214;-63
2023/04/24 05:17:02;;;;;;;0.55;0.55;;;12.50;99.90;;;;;;5054399;28;20592;-64
2023/04/24 05:19:29;;;;;;;0.45;0.45;;;12.50;99.90;;;;;;5053457;28;20218;-64
2023/04/24 05:21:56;;;;;;;0.60;0.60;;;12.50;99.90;;;;;;5053729;28;20247;-64
2023/04/24 05:24:24;;;;;;;0.32;0.32;;;12.50;99.90;;;;;;5055741;28;20204;-63
2023/04/24 05:26:51;;;;;;;1.00;0.50;;;12.40;99.90;;;;;;5058806;28;20200;-64
2023/04/24 05:29:19;;;;;;;0.50;0.50;;;12.50;99.90;;;;;;5073247;28;20211;-64
2023/04/24 05:31:45;;;;;;;0.50;0.50;;;12.40;99.90;;;;;;5072807;28;20271;-63
2023/04/24 05:34:12;;;;;;;0.55;0.55;;;12.50;99.90;;;;;;5072531;28;20203;-63
2023/04/24 05:36:39;;;;;;;0.38;0.38;;;12.40;99.90;;;;;;5070878;28;20207;-64
2023/04/24 05:39:06;;;;;;;0.53;0.53;;;12.30;99.90;;;;;;5063318;28;20206;-64
2023/04/24 05:41:34;;;;;;;0.50;0.50;;;12.30;99.90;;;;;;5068380;28;20241;-64
2023/04/24 05:44:01;;;;;;;0.60;0.60;;;12.30;99.90;;;;;;5066046;28;20203;-63
2023/04/24 05:46:28;;;;;;;0.60;0.60;;;12.20;99.90;;;;;;5072524;28;20195;-65
2023/04/24 05:48:55;;;;;;;0.50;0.50;;;12.20;99.90;;;;;;5082861;28;20335;-67
2023/04/24 05:51:21;;;;;;;0.70;0.70;;;12.20;99.90;;;;;;5053442;28;20235;-64
2023/04/24 05:53:48;;;;;;;0.60;0.60;;;12.10;99.90;;;;;;5060051;28;20203;-63
2023/04/24 05:56:16;;;;;;;0.70;0.70;;;12.10;99.90;;;;;;5068944;28;20196;-64
2023/04/24 05:58:44;;;;;;;0.60;0.60;;;12.00;99.90;;;;;;5069775;28;20213;-63
2023/04/24 06:01:11;;;;;;;0.60;0.60;;;11.90;99.90;;;;;;5073049;28;20227;-62
2023/04/24 06:03:39;;;;;;;0.60;0.60;;;11.80;99.90;;;;;;5072470;28;20204;-65
2023/04/24 06:06:07;;;;;;;0.70;0.70;;;11.70;99.90;;;;;;5072637;28;20207;-62
2023/04/24 06:08:34;;;;;;;0.80;0.80;;;11.70;99.90;;;;;;5072918;28;20214;-63
2023/04/24 06:11:01;;;;;;;0.70;0.70;;;11.70;99.90;;;;;;5075836;28;20310;-63
2023/04/24 06:13:28;;;;;;;0.68;0.68;;;11.70;99.90;;;;;;5083119;28;20297;-65
2023/04/24 06:15:56;;;;;;;0.60;0.60;;;11.80;99.90;;;;;;5082507;28;20207;-63
2023/04/24 06:18:23;;;;;;;0.80;0.80;;;11.80;99.90;;;;;;5080228;28;20701;-62
2023/04/24 06:20:50;;;;;;;0.70;0.70;;;12.00;99.90;;;;;;5077577;28;20318;-62
2023/04/24 06:23:17;;;;;;;0.70;0.70;;;12.00;99.90;;;;;;5072161;28;20207;-63
2023/04/24 06:25:43;;;;;;;0.60;0.60;;;12.10;99.90;;;;;;5072362;28;20211;-65
2023/04/24 06:28:10;;;;;;;0.80;0.80;;;12.40;99.90;;;;;;5072829;28;20204;-64
2023/04/24 06:30:37;;;;;;;0.93;0.80;;;12.20;99.90;;;;;;5070984;28;20234;-63
2023/04/24 06:33:05;;;;;;;0.80;0.80;;;12.20;99.90;;;;;;5070487;28;20233;-62
2023/04/24 06:35:32;;;;;;;0.70;0.70;;;12.00;99.90;;;;;;5073582;28;20207;-65
2023/04/24 06:37:59;;;;;;;0.87;0.80;;;12.10;99.90;;;;;;5074052;28;20230;-63
2023/04/24 06:40:26;;;;;;;0.70;0.70;;;12.00;99.90;;;;;;5073630;28;20223;-63
2023/04/24 06:42:52;;;;;;;0.77;0.77;;;12.00;99.90;;;;;;5073171;28;20230;-63
2023/04/24 06:45:19;;;;;;;0.80;0.80;;;12.00;99.90;;;;;;5074510;28;20294;-63
2023/04/24 06:47:46;;;;;;;0.80;0.80;;;12.00;99.90;;;;;;5079054;28;20310;-63
2023/04/24 06:50:14;;;;;;;0.70;0.70;;;12.10;99.90;;;;;;5073106;28;20233;-63
2023/04/24 06:52:42;;;;;;;0.70;0.70;;;12.10;99.90;;;;;;5073414;28;20203;-63
2023/04/24 06:55:10;;;;;;;0.70;0.70;;;12.20;99.90;;;;;;5072339;28;20677;-63
2023/04/24 06:57:37;;;;;;;1.33;0.80;;;12.20;99.90;;;;;;5072765;28;20681;-64
2023/04/24 07:00:06;;;;;;;0.70;0.70;;;12.30;99.90;;;;;;5072018;28;20242;-64
2023/04/24 07:02:33;;;;;;;0.80;0.80;;;12.30;99.90;;;;;;5082138;28;20249;-64
2023/04/24 07:05:01;;;;;;;0.80;0.80;;;12.30;99.90;;;;;;5087495;28;20234;-63
2023/04/24 07:07:29;;;;;;;0.60;0.60;;;12.40;99.90;;;;;;5084937;28;20643;-65
2023/04/24 07:09:56;;;;;;;0.70;0.70;;;12.50;99.90;;;;;;5078982;28;20267;-63
2023/04/24 07:12:22;;;;;;;0.82;0.82;;;12.40;99.90;;;;;;5079797;28;20210;-64
2023/04/24 07:14:49;;;;;;;0.63;0.63;;;12.50;99.90;;;;;;5080982;28;20293;-65
2023/04/24 07:17:16;;;;;;;0.60;0.60;;;12.60;99.90;;;;;;5074645;28;20298;-64
2023/04/24 07:19:43;;;;;;;0.80;0.80;;;12.60;99.90;;;;;;5072137;28;20260;-62
2023/04/24 07:22:16;;;;;;;0.90;0.90;;;12.60;99.90;;;;;;5072204;28;20705;-63
2023/04/24 07:24:44;;;;;;;0.80;0.80;;;12.60;99.90;;;;;;5072662;28;20218;-63
2023/04/24 07:27:11;;;;;;;0.63;0.63;;;12.70;99.90;;;;;;5072881;28;20203;-62
2023/04/24 07:29:38;;;;;;;0.90;0.90;;;12.60;99.90;;;;;;5071074;28;20587;-64
2023/04/24 07:32:05;;;;;;;1.00;1.00;;;12.50;99.90;;;;;;5071481;28;20225;-63
2023/04/24 07:34:31;;;;;;;0.90;0.90;;;12.50;99.90;;;;;;5072458;28;20297;-63
2023/04/24 07:36:58;;;;;;;0.80;0.80;;;12.50;99.90;;;;;;5072078;28;20207;-63
2023/04/24 07:39:26;;;;;;;0.70;0.70;;;12.40;99.90;;;;;;5070670;28;20214;-64
2023/04/24 07:41:54;;;;;;;0.50;0.50;;;12.40;99.90;;;;;;5071703;28;20254;-64
2023/04/24 07:44:21;;;;;;;0.80;0.80;;;12.30;99.90;;;;;;5072001;28;20579;-63
2023/04/24 07:46:48;;;;;;;0.80;0.80;;;12.30;99.90;;;;;;5071911;28;20203;-65
2023/04/24 07:49:15;;;;;;;0.83;0.83;;;12.60;99.90;;;;;;5076634;28;20210;-64
2023/04/24 07:51:41;;;;;;;0.80;0.80;;;12.50;99.90;;;;;;5085490;28;20247;-63
2023/04/24 07:54:08;;;;;;;0.80;0.80;;;12.40;99.90;;;;;;5083399;28;20741;-64
2023/04/24 07:56:38;;;;;;;0.77;0.70;;;12.50;99.90;;;;;;5080834;28;20696;-64
2023/04/24 07:59:06;;;;;;;0.80;0.80;;;12.40;99.90;;;;;;5079918;28;20215;-61
2023/04/24 08:01:33;;;;;;;1.00;1.00;;;12.40;99.90;;;;;;5074327;28;20230;-62
2023/04/24 08:04:00;;;;;;;0.80;0.80;;;12.40;99.90;;;;;;5072122;28;20234;-64
2023/04/24 08:06:29;;;;;;;0.80;0.77;;;12.40;99.90;;;;;;5071731;28;20209;-64
2023/04/24 08:08:56;;;;;;;0.90;0.90;;;12.30;99.90;;;;;;5070506;28;20203;-63
2023/04/24 08:11:23;;;;;;;0.60;0.60;;;12.40;99.90;;;;;;5070654;28;20229;-63
2023/04/24 08:13:50;;;;;;;0.60;0.60;;;12.30;99.90;;;;;;5071147;28;20207;-63
2023/04/24 08:16:18;;;;;;;0.80;0.77;;;12.50;99.90;;;;;;5070921;28;20260;-64
2023/04/24 08:18:45;;;;;;;0.70;0.70;;;12.90;99.90;;;;;;5071179;28;20626;-62
2023/04/24 08:21:16;;;;;;;0.70;0.70;;;13.10;99.90;;;;;;5070262;28;20229;-63
2023/04/24 08:23:43;;;;;;;0.60;0.60;;;13.20;99.90;;;;;;5073345;28;20257;-63
2023/04/24 08:26:10;;;;;;;0.80;0.80;;;13.20;99.90;;;;;;5072499;28;20286;-63
2023/04/24 08:28:37;;;;;;;0.60;0.60;;;13.10;99.90;;;;;;5072807;28;20207;-63
2023/04/24 08:31:05;;;;;;;0.47;0.47;;;13.00;99.90;;;;;;5070117;28;20227;-64
2023/04/24 08:33:34;;;;;;;0.50;0.50;;;12.80;99.90;;;;;;5071635;28;20199;-62
2023/04/24 08:36:01;;;;;;;0.70;0.70;;;12.80;99.90;;;;;;5071564;28;20206;-64
2023/04/24 08:38:28;;;;;;;0.77;0.77;;;12.80;99.90;;;;;;5071188;28;20203;-63
2023/04/24 08:40:55;;;;;;;0.60;0.60;;;12.80;99.90;;;;;;5069947;28;20233;-64
2023/04/24 08:43:23;;;;;;;0.67;0.67;;;12.70;99.90;;;;;;5071727;28;20231;-62
2023/04/24 08:45:50;;;;;;;0.70;0.70;;;12.70;99.90;;;;;;5071807;28;20214;-62
2023/04/24 08:48:18;;;;;;;0.50;0.50;;;12.70;99.90;;;;;;5072902;28;20203;-64
2023/04/24 08:50:47;;;;;;;1.10;0.73;;;12.70;99.90;;;;;;5070535;28;20223;-63
2023/04/24 08:53:14;;;;;;;0.50;0.50;;;12.70;99.90;;;;;;5071312;28;20676;-63
2023/04/24 08:55:42;;;;;;;0.70;0.70;;;12.70;99.90;;;;;;5070816;28;20199;-64
2023/04/24 08:58:09;;;;;;;0.70;0.70;;;12.70;99.90;;;;;;5070063;28;20662;-65
2023/04/24 09:00:36;;;;;;;0.60;0.60;;;12.60;99.90;;;;;;5069595;28;20227;-63
2023/04/24 09:03:05;;;;;;;0.77;0.77;;;12.50;99.90;;;;;;5070390;28;20692;-63
2023/04/24 09:05:32;;;;;;;0.90;0.90;;;12.50;99.90;;;;;;5072117;28;20203;-64
2023/04/24 09:08:02;;;;;;;0.60;0.60;;;12.50;99.90;;;;;;5074374;28;20200;-64
2023/04/24 09:10:30;;;;;;;0.63;0.63;;;12.40;99.90;;;;;;5074387;28;20223;-64
2023/04/24 09:13:01;;;;;;;0.73;0.70;;;12.40;99.90;;;;;;5074956;28;20199;-63
2023/04/24 09:15:28;;;;;;;0.50;0.50;;;12.20;99.90;;;;;;5073779;28;20298;-63
2023/04/24 09:17:55;;;;;;;0.63;0.63;;;12.10;99.90;;;;;;5070060;28;20207;-63
2023/04/24 09:20:21;;;;;;;0.60;0.60;;;12.00;99.90;;;;;;5071075;28;20223;-64
2023/04/24 09:22:48;;;;;;;0.67;0.67;;;12.00;99.90;;;;;;5073290;28;20219;-65
2023/04/24 09:25:17;;;;;;;0.43;0.43;;;11.90;99.90;;;;;;5073609;28;20221;-64
2023/04/24 09:27:46;;;;;;;0.80;0.80;;;11.80;99.90;;;;;;5074429;28;20287;-64
2023/04/24 09:30:13;;;;;;;0.75;0.75;;;11.90;99.90;;;;;;5083472;28;20247;-64
2023/04/24 09:32:41;;;;;;;0.70;0.70;;;11.90;99.90;;;;;;5089122;28;20214;-64
2023/04/24 09:35:10;;;;;;;0.70;0.70;;;12.00;99.90;;;;;;5089018;28;20203;-64
2023/04/24 09:37:38;;;;;;;0.50;0.50;;;12.00;99.90;;;;;;5086609;28;20231;-64
2023/04/24 09:40:13;;;;;;;0.60;0.60;;;12.00;99.90;;;;;;5077158;28;20713;-63
2023/04/24 09:42:45;;;;;;;0.77;0.77;;;12.20;99.90;;;;;;5074349;28;20777;-64
2023/04/24 09:45:12;;;;;;;0.87;0.87;;;12.30;99.90;;;;;;5074665;28;20697;-65
2023/04/24 09:47:39;;;;;;;0.57;0.57;;;12.40;99.90;;;;;;5074930;28;20210;-64
2023/04/24 09:50:14;;;;;;;0.57;0.57;;;12.40;99.90;;;;;;5073518;28;20694;-65
2023/04/24 09:52:43;;;;;;;0.60;0.60;;;12.50;99.90;;;;;;5074221;28;20751;-64
2023/04/24 09:55:20;;;;;;;0.40;0.40;;;12.50;99.90;;;;;;5074512;28;20206;-63
2023/04/24 09:57:52;;;;;;;0.60;0.60;;;12.40;99.90;;;;;;5074104;28;20217;-65
2023/04/24 10:00:24;;;;;;;0.67;0.67;;;12.40;99.90;;;;;;5073692;28;20227;-63
2023/04/24 10:02:53;;;;;;;0.80;0.80;;;12.40;99.90;;;;;;5074364;28;20223;-63
2023/04/24 10:05:20;;;;;;;0.77;0.77;;;12.50;99.90;;;;;;5074973;28;20203;-65
2023/04/24 10:07:47;;;;;;;0.50;0.50;;;12.50;99.90;;;;;;5075185;28;20215;-65
2023/04/24 10:10:14;;;;;;;1.02;0.60;;;12.50;99.90;;;;;;5073991;28;20223;-64
2023/04/24 10:12:42;;;;;;;1.00;1.00;;;12.50;99.90;;;;;;5074452;28;20196;-63
2023/04/24 10:15:13;;;;;;;0.50;0.50;;;12.40;99.90;;;;;;5072336;28;20207;-62
2023/04/24 10:17:41;;;;;;;0.60;0.60;;;12.40;99.90;;;;;;5072728;28;20291;-65
2023/04/24 10:20:09;;;;;;;0.50;0.50;;;12.40;99.90;;;;;;5071539;28;20222;-64
2023/04/24 10:22:37;;;;;;;0.67;0.67;;;12.40;99.90;;;;;;5072234;28;20346;-63
2023/04/24 10:25:06;;;;;;;0.80;0.77;;;12.60;99.90;;;;;;5072399;28;20203;-62
2023/04/24 10:27:35;;;;;;;0.43;0.43;;;12.70;99.90;;;;;;5072320;28;20253;-64
2023/04/24 10:30:03;;;;;;;0.60;0.60;;;12.70;99.90;;;;;;5071978;28;20207;-65
2023/04/24 10:32:31;;;;;;;0.43;0.43;;;12.80;99.90;;;;;;5071269;28;20720;-64
2023/04/24 10:34:58;;;;;;;0.80;0.73;;;12.70;99.90;;;;;;5072029;28;20213;-64
2023/04/24 10:37:26;;;;;;;0.60;0.60;;;12.70;99.90;;;;;;5072770;28;20261;-65
2023/04/24 10:39:54;;;;;;;0.90;0.90;;;12.80;99.90;;;;;;5071456;28;20204;-65
2023/04/24 10:42:21;;;;;;;0.77;0.77;;;12.90;99.90;;;;;;5072250;28;20603;-63
2023/04/24 10:44:49;;;;;;;0.63;0.63;;;12.90;99.90;;;;;;5073370;28;20559;-63
2023/04/24 10:47:16;;;;;;;0.90;0.90;;;13.20;99.90;;;;;;5073031;28;20739;-65
2023/04/24 10:49:44;;;;;;;0.70;0.70;;;13.30;99.90;;;;;;5076019;28;20298;-64
2023/04/24 10:52:11;;;;;;;0.57;0.57;;;13.50;99.90;;;;;;5074800;28;20622;-64
2023/04/24 10:54:45;;;;;;;0.57;0.57;;;13.60;99.90;;;;;;5078681;28;20235;-63
2023/04/24 10:57:30;;;;;;;0.60;0.60;;;13.70;99.90;;;;;;5073343;28;20297;-64
2023/04/24 11:00:19;;;;;;;0.50;0.50;;;13.60;99.90;;;;;;5072191;28;20256;-64
2023/04/24 11:02:50;;;;;;;0.60;0.60;;;13.50;99.90;;;;;;5075537;28;20219;-62
2023/04/24 11:05:19;;;;;;;0.60;0.60;;;13.40;99.90;;;;;;5071954;28;20207;-63
2023/04/24 11:08:11;;;;;;;0.60;0.60;;;13.40;99.90;;;;;;5073240;28;20195;-63
2023/04/24 11:10:45;;;;;;;0.37;0.37;;;13.40;99.90;;;;;;5071890;28;21040;-64
2023/04/24 11:13:11;;;;;;;0.45;0.45;;;13.30;99.90;;;;;;5076442;28;20195;-64
2023/04/24 11:15:38;;;;;;;0.57;0.43;;;13.30;99.90;;;;;;5071247;28;20298;-63
2023/04/24 11:18:05;;;;;;;0.40;0.40;;;13.30;99.90;;;;;;5071414;28;20204;-64
2023/04/24 11:20:33;;;;;;;0.63;0.63;;;13.30;99.90;;;;;;5070858;28;20223;-63
2023/04/24 11:23:06;;;;;;;0.40;0.40;;;13.40;99.90;;;;;;5071149;28;20788;-63
2023/04/24 11:25:33;;;;;;;0.50;0.50;;;13.40;99.90;;;;;;5071561;28;20791;-63
2023/04/24 11:28:16;;;;;;;0.33;0.33;;;13.40;99.90;;;;;;5071629;28;20587;-63
2023/04/24 11:30:42;;;;;;;0.47;0.47;;;13.60;99.90;;;;;;5070932;28;20223;-64
2023/04/24 11:33:09;;;;;;;0.40;0.40;;;13.70;99.90;;;;;;5069909;28;20274;-63
2023/04/24 11:35:41;;;;;;;0.32;0.32;;;13.80;99.90;;;;;;5071059;28;20209;-63
2023/04/24 11:38:08;;;;;;;0.70;0.70;;;14.10;99.90;;;;;;5083671;28;20267;-64
2023/04/24 11:40:35;;;;;;;0.63;0.63;;;14.10;99.90;;;;;;5071485;28;20230;-64
2023/04/24 11:43:03;;;;;;;0.70;0.70;;;14.10;99.90;;;;;;5071324;28;20489;-64
2023/04/24 11:45:31;;;;;;;0.63;0.63;;;14.10;99.90;;;;;;5072057;28;20885;-63
2023/04/24 11:47:58;;;;;;;0.50;0.50;;;14.20;99.90;;;;;;5072925;28;20272;-63
2023/04/24 11:50:29;;;;;;;0.60;0.60;;;14.20;99.90;;;;;;5071447;28;20231;-63
2023/04/24 11:52:57;;;;;;;0.70;0.70;;;14.20;99.90;;;;;;5071685;28;20235;-63
2023/04/24 11:55:27;;;;;;;0.90;0.90;;;14.10;99.90;;;;;;5071410;28;20209;-64
2023/04/24 11:57:57;;;;;;;0.40;0.40;;;14.00;99.90;;;;;;5072390;28;20210;-63
2023/04/24 12:00:25;;;;;;;0.50;0.50;;;13.90;99.90;;;;;;5071698;28;20227;-64
2023/04/24 12:02:52;;;;;;;0.60;0.60;;;13.90;99.90;;;;;;5072267;28;20219;-64
2023/04/24 12:05:22;;;;;;;0.55;0.55;;;13.80;99.90;;;;;;5071707;28;20207;-64
2023/04/24 12:07:50;;;;;;;0.60;0.60;;;13.80;99.90;;;;;;5071458;28;20254;-64
2023/04/24 12:10:23;;;;;;;0.45;0.45;;;13.70;99.90;;;;;;5071109;28;20227;-64
2023/04/24 12:12:51;;;;;;;0.60;0.60;;;13.70;99.90;;;;;;5073523;28;20194;-64
2023/04/24 12:15:19;;;;;;;0.63;0.63;;;13.70;99.90;;;;;;5073737;28;20277;-63
2023/04/24 12:17:46;;;;;;;0.63;0.63;;;13.80;99.90;;;;;;5072781;28;20218;-64
2023/04/24 12:20:15;;;;;;;0.63;0.63;;;13.80;99.90;;;;;;5071488;28;20225;-64
2023/04/24 12:22:46;;;;;;;0.60;0.60;;;13.90;99.90;;;;;;5073158;28;20218;-64
2023/04/24 12:25:14;;;;;;;1.48;0.80;;;13.90;99.90;;;;;;5071643;28;20200;-64
2023/04/24 12:27:42;;;;;;;0.67;0.67;;;13.90;99.90;;;;;;5071590;28;20209;-64
2023/04/24 12:30:12;;;;;;;0.30;0.30;;;13.90;99.90;;;;;;5070794;28;20314;-64
2023/04/24 12:32:43;;;;;;;0.60;0.60;;;13.90;99.90;;;;;;5071459;28;20203;-63
2023/04/24 12:35:10;;;;;;;0.40;0.40;;;13.80;99.90;;;;;;5071797;28;20562;-64
2023/04/24 12:37:39;;;;;;;0.47;0.45;;;13.70;99.90;;;;;;5071554;28;20678;-62
2023/04/24 12:40:08;;;;;;;0.50;0.50;;;13.70;99.90;;;;;;5070246;28;20304;-62
2023/04/24 12:42:37;;;;;;;0.53;0.53;;;13.70;99.90;;;;;;5071070;28;20211;-64
2023/04/24 12:45:07;;;;;;;0.60;0.60;;;13.70;99.90;;;;;;5071029;28;20207;-64
2023/04/24 12:47:36;;;;;;;0.60;0.60;;;13.80;99.90;;;;;;5072156;28;20662;-63
2023/04/24 12:50:03;;;;;;;0.60;0.60;;;13.70;99.90;;;;;;5070544;28;20622;-64